createdAt,value
2022-11-22T00:01:42.184Z,5.30
2022-11-22T00:04:09.428Z,5.47
2022-11-22T00:06:36.556Z,4.60
2022-11-22T00:09:03.879Z,4.82
2022-11-22T00:11:30.939Z,4.43
2022-11-22T00:13:58.127Z,5.00
2022-11-22T00:16:25.183Z,4.60
2022-11-22T00:18:52.269Z,4.85
2022-11-22T00:21:18.940Z,4.45
2022-11-22T00:23:45.974Z,4.60
2022-11-22T00:26:13.069Z,4.45
2022-11-22T00:28:40.256Z,4.53
2022-11-22T00:31:07.272Z,4.50
2022-11-22T00:33:34.433Z,4.63
2022-11-22T00:36:01.511Z,4.32
2022-11-22T00:38:28.673Z,4.35
2022-11-22T00:40:55.747Z,5.00
2022-11-22T00:43:22.900Z,4.90
2022-11-22T00:45:49.954Z,4.60
2022-11-22T00:48:17.091Z,4.20
2022-11-22T00:50:44.140Z,4.07
2022-11-22T00:53:11.210Z,3.78
2022-11-22T00:55:38.258Z,4.25
2022-11-22T00:58:05.290Z,4.20
2022-11-22T01:00:32.480Z,3.80
2022-11-22T01:02:59.632Z,3.50
2022-11-22T01:05:26.673Z,3.70
2022-11-22T01:07:54.294Z,3.22
2022-11-22T01:10:21.554Z,3.75
2022-11-22T01:12:48.336Z,3.70
2022-11-22T01:15:15.502Z,3.75
2022-11-22T01:17:42.646Z,3.80
2022-11-22T01:20:09.966Z,3.60
2022-11-22T01:22:37.013Z,3.65
2022-11-22T01:25:04.098Z,3.92
2022-11-22T01:27:30.731Z,3.97
2022-11-22T01:29:57.758Z,3.80
2022-11-22T01:32:24.775Z,4.20
2022-11-22T01:34:51.434Z,3.65
2022-11-22T01:37:18.702Z,3.50
2022-11-22T01:39:45.742Z,3.30
2022-11-22T01:42:12.884Z,3.03
2022-11-22T01:44:40.646Z,2.83
2022-11-22T01:47:12.567Z,2.90
2022-11-22T01:49:41.662Z,3.13
2022-11-22T01:52:13.543Z,2.60
2022-11-22T01:54:42.690Z,2.70
2022-11-22T01:57:13.030Z,2.50
2022-11-22T01:59:42.319Z,2.60
2022-11-22T02:02:09.410Z,2.70
2022-11-22T02:04:37.769Z,2.70
2022-11-22T02:07:04.822Z,2.75
2022-11-22T02:09:32.631Z,2.50
2022-11-22T02:12:02.611Z,2.50
2022-11-22T02:14:31.076Z,2.58
2022-11-22T02:16:58.119Z,2.37
2022-11-22T02:19:45.178Z,2.60
2022-11-22T02:22:32.195Z,2.38
2022-11-22T02:24:59.247Z,2.35
2022-11-22T02:27:26.339Z,2.20
2022-11-22T02:29:53.387Z,2.17
2022-11-22T02:32:20.587Z,2.15
2022-11-22T02:34:48.799Z,2.10
2022-11-22T02:37:18.393Z,1.95
2022-11-22T02:39:45.943Z,2.13
2022-11-22T02:42:13.323Z,2.13
2022-11-22T02:44:41.870Z,1.95
2022-11-22T02:47:08.978Z,2.20
2022-11-22T02:49:36.018Z,2.00
2022-11-22T02:52:03.061Z,2.15
2022-11-22T02:54:30.183Z,2.22
2022-11-22T02:56:57.145Z,1.90
2022-11-22T02:59:24.097Z,2.10
2022-11-22T03:01:51.192Z,2.00
2022-11-22T03:04:25.635Z,2.00
2022-11-22T03:06:53.898Z,1.95
2022-11-22T03:09:20.991Z,1.90
2022-11-22T03:11:48.067Z,2.17
2022-11-22T03:14:15.701Z,2.08
2022-11-22T03:16:44.426Z,2.22
2022-11-22T03:19:11.951Z,1.80
2022-11-22T03:21:39.822Z,2.07
2022-11-22T03:24:07.522Z,1.92
2022-11-22T03:26:35.125Z,2.10
2022-11-22T03:29:02.225Z,1.90
2022-11-22T03:31:29.321Z,2.20
2022-11-22T03:33:56.971Z,1.90
2022-11-22T03:36:24.058Z,2.25
2022-11-22T03:38:51.134Z,2.10
2022-11-22T03:41:18.183Z,2.05
2022-11-22T03:43:45.308Z,2.30
2022-11-22T03:46:15.325Z,2.30
2022-11-22T03:48:42.484Z,2.00
2022-11-22T03:51:09.480Z,1.98
2022-11-22T03:53:36.541Z,1.73
2022-11-22T03:56:03.643Z,1.80
2022-11-22T03:58:30.971Z,1.90
2022-11-22T04:00:58.350Z,2.20
2022-11-22T04:03:25.632Z,1.98
2022-11-22T04:05:52.711Z,2.00
2022-11-22T04:08:19.738Z,1.83
2022-11-22T04:10:48.710Z,2.23
2022-11-22T04:13:15.759Z,1.90
2022-11-22T04:15:42.932Z,1.80
2022-11-22T04:18:10.958Z,2.20
2022-11-22T04:20:58.295Z,2.08
2022-11-22T04:23:30.717Z,2.03
2022-11-22T04:26:00.810Z,2.20
2022-11-22T04:28:53.683Z,2.00
2022-11-22T04:31:34.852Z,2.08
2022-11-22T04:34:01.952Z,2.30
2022-11-22T04:36:29.025Z,2.10
2022-11-22T04:38:56.081Z,2.25
2022-11-22T04:41:23.373Z,2.27
2022-11-22T04:44:10.362Z,2.10
2022-11-22T04:46:38.179Z,2.20
2022-11-22T04:49:05.245Z,1.80
2022-11-22T04:51:52.190Z,2.08
2022-11-22T04:54:19.264Z,2.37
2022-11-22T04:56:46.301Z,3.53
2022-11-22T04:59:13.370Z,3.00
2022-11-22T05:01:40.521Z,2.28
2022-11-22T05:04:07.598Z,2.30
2022-11-22T05:06:34.678Z,2.38
2022-11-22T05:09:01.728Z,2.20
2022-11-22T05:11:28.806Z,2.10
2022-11-22T05:13:55.838Z,2.30
2022-11-22T05:16:22.984Z,2.30
2022-11-22T05:18:59.254Z,2.40
2022-11-22T05:21:27.572Z,2.25
2022-11-22T05:23:54.686Z,2.30
2022-11-22T05:26:23.001Z,2.37
2022-11-22T05:28:50.189Z,2.70
2022-11-22T05:31:18.553Z,2.10
2022-11-22T05:33:46.449Z,2.10
2022-11-22T05:36:13.847Z,2.30
2022-11-22T05:38:40.921Z,2.83
2022-11-22T05:41:08.906Z,2.55
2022-11-22T05:43:36.286Z,2.10
2022-11-22T05:46:24.382Z,2.22
2022-11-22T05:48:52.041Z,2.03
2022-11-22T05:51:20.270Z,2.08
2022-11-22T05:53:47.549Z,1.80
2022-11-22T05:56:15.799Z,2.08
2022-11-22T05:58:43.327Z,2.20
2022-11-22T06:01:11.873Z,2.15
2022-11-22T06:03:39.086Z,2.38
2022-11-22T06:06:07.140Z,2.30
2022-11-22T06:08:35.682Z,2.37
2022-11-22T06:11:19.309Z,2.38
2022-11-22T06:13:47.194Z,2.50
2022-11-22T06:16:14.734Z,2.28
2022-11-22T06:18:42.070Z,2.40
2022-11-22T06:21:11.695Z,2.40
2022-11-22T06:23:38.782Z,2.20
2022-11-22T06:26:07.454Z,2.85
2022-11-22T06:28:35.311Z,2.63
2022-11-22T06:31:03.119Z,2.47
2022-11-22T06:33:30.198Z,2.33
2022-11-22T06:36:17.215Z,2.33
2022-11-22T06:38:44.825Z,2.10
2022-11-22T06:41:13.177Z,2.50
2022-11-22T06:43:46.722Z,2.42
2022-11-22T06:46:15.903Z,2.30
2022-11-22T06:48:43.384Z,2.28
2022-11-22T06:51:12.283Z,2.13
2022-11-22T06:53:47.431Z,2.35
2022-11-22T06:56:16.781Z,2.15
2022-11-22T06:58:44.475Z,2.60
2022-11-22T07:01:14.027Z,10.30
2022-11-22T07:03:41.601Z,10.25
2022-11-22T07:06:09.523Z,6.10
2022-11-22T07:08:37.034Z,4.25
2022-11-22T07:11:05.092Z,2.92
2022-11-22T07:13:32.312Z,2.92
2022-11-22T07:16:00.319Z,2.92
2022-11-22T07:18:27.613Z,3.45
2022-11-22T07:20:54.704Z,2.65
2022-11-22T07:23:21.758Z,2.92
2022-11-22T07:25:50.663Z,2.67
2022-11-22T07:28:17.715Z,3.08
2022-11-22T07:30:44.791Z,3.35
2022-11-22T07:33:11.848Z,2.78
2022-11-22T07:35:38.914Z,2.70
2022-11-22T07:38:06.114Z,2.53
2022-11-22T07:40:33.463Z,2.72
2022-11-22T07:43:00.726Z,2.70
2022-11-22T07:45:27.787Z,3.00
2022-11-22T07:47:54.822Z,2.95
2022-11-22T07:50:21.927Z,2.43
2022-11-22T07:52:55.207Z,3.03
2022-11-22T07:55:22.310Z,3.37
2022-11-22T07:57:49.375Z,3.85
2022-11-22T08:00:16.535Z,3.50
2022-11-22T08:02:44.623Z,3.50
2022-11-22T08:05:11.714Z,3.50
2022-11-22T08:07:38.807Z,3.50
2022-11-22T08:10:06.134Z,3.80
2022-11-22T08:12:33.170Z,5.38
2022-11-22T08:15:00.284Z,4.95
2022-11-22T08:17:27.321Z,4.93
2022-11-22T08:19:54.355Z,3.47
2022-11-22T08:22:21.399Z,3.38
2022-11-22T08:24:48.418Z,3.50
2022-11-22T08:27:15.431Z,3.15
2022-11-22T08:29:42.801Z,3.20
2022-11-22T08:32:09.888Z,3.20
2022-11-22T08:34:38.185Z,3.60
2022-11-22T08:37:06.241Z,3.63
2022-11-22T08:39:33.343Z,4.85
2022-11-22T08:42:00.389Z,4.10
2022-11-22T08:44:27.437Z,4.30
2022-11-22T08:46:54.506Z,4.30
2022-11-22T08:49:21.610Z,4.50
2022-11-22T08:51:48.692Z,4.50
2022-11-22T08:54:16.052Z,4.13
2022-11-22T08:56:43.116Z,4.32
2022-11-22T08:59:10.269Z,4.18
2022-11-22T09:01:37.393Z,4.47
2022-11-22T09:04:04.473Z,3.50
2022-11-22T09:12:06.281Z,3.00
2022-11-22T09:14:33.354Z,2.97
2022-11-22T09:17:00.191Z,2.50
2022-11-22T09:19:27.269Z,2.90
2022-11-22T09:21:54.326Z,2.80
2022-11-22T09:24:21.362Z,2.80
2022-11-22T09:26:48.439Z,2.67
2022-11-22T09:29:16.587Z,2.40
2022-11-22T09:31:43.713Z,2.80
2022-11-22T09:34:10.781Z,2.80
2022-11-22T09:36:37.873Z,3.00
2022-11-22T09:39:04.966Z,2.67
2022-11-22T09:41:33.001Z,2.38
2022-11-22T09:44:01.761Z,2.70
2022-11-22T09:46:29.861Z,2.75
2022-11-22T09:49:06.998Z,2.65
2022-11-22T09:51:36.874Z,2.53
2022-11-22T09:54:08.240Z,2.60
2022-11-22T09:56:35.563Z,2.50
2022-11-22T09:59:05.891Z,2.78
2022-11-22T10:01:43.826Z,2.20
2022-11-22T10:04:15.017Z,2.47
2022-11-22T10:06:44.223Z,2.20
2022-11-22T10:09:11.322Z,2.40
2022-11-22T10:11:44.846Z,2.13
2022-11-22T10:14:21.970Z,2.55
2022-11-22T10:16:53.853Z,2.10
2022-11-22T10:19:27.965Z,2.67
2022-11-22T10:21:55.425Z,2.47
2022-11-22T10:24:22.498Z,2.67
2022-11-22T10:26:49.969Z,2.33
2022-11-22T10:29:23.092Z,2.20
2022-11-22T10:31:56.866Z,1.85
2022-11-22T10:34:23.876Z,1.77
2022-11-22T10:36:52.364Z,1.90
2022-11-22T10:39:42.232Z,2.00
2022-11-22T10:42:10.336Z,1.77
2022-11-22T10:44:48.336Z,1.80
2022-11-22T10:47:15.275Z,1.77
2022-11-22T10:50:02.249Z,1.77
2022-11-22T10:52:49.261Z,2.03
2022-11-22T10:55:19.513Z,1.95
2022-11-22T10:57:47.644Z,2.15
2022-11-22T11:00:18.207Z,1.90
2022-11-22T11:02:46.228Z,2.17
2022-11-22T11:05:15.437Z,2.03
2022-11-22T11:07:46.188Z,2.00
2022-11-22T11:10:29.273Z,2.00
2022-11-22T11:13:01.549Z,1.92
2022-11-22T11:15:34.760Z,2.15
2022-11-22T11:18:02.912Z,1.98
2022-11-22T11:20:33.924Z,2.15
2022-11-22T11:23:16.770Z,1.88
2022-11-22T11:25:45.444Z,1.70
2022-11-22T11:28:18.430Z,1.63
2022-11-22T11:30:49.959Z,1.42
2022-11-22T11:33:18.948Z,1.92
2022-11-22T11:35:47.396Z,2.10
2022-11-22T11:38:31.280Z,1.70
2022-11-22T11:40:58.789Z,1.92
2022-11-22T11:43:26.267Z,2.00
2022-11-22T11:45:53.436Z,1.90
2022-11-22T11:48:28.685Z,1.83
2022-11-22T11:51:15.799Z,1.73
2022-11-22T11:53:44.208Z,1.45
2022-11-22T11:56:31.197Z,1.60
2022-11-22T11:58:59.638Z,1.80
2022-11-22T12:01:27.059Z,2.10
2022-11-22T12:03:58.070Z,1.63
2022-11-22T12:06:29.708Z,1.60
2022-11-22T12:08:57.940Z,2.30
2022-11-22T12:11:31.444Z,1.70
2022-11-22T12:14:19.579Z,1.75
2022-11-22T12:16:48.067Z,1.67
2022-11-22T12:19:35.043Z,1.50
2022-11-22T12:22:05.645Z,1.80
2022-11-22T12:25:16.913Z,1.55
2022-11-22T12:27:24.840Z,1.90
2022-11-22T12:29:52.851Z,1.75
2022-11-22T12:32:23.654Z,1.60
2022-11-22T12:35:00.922Z,1.80
2022-11-22T12:37:30.442Z,1.77
2022-11-22T12:39:59.412Z,1.65
2022-11-22T12:42:30.333Z,1.60
2022-11-22T12:45:02.592Z,1.60
2022-11-22T12:47:32.922Z,1.80
2022-11-22T12:50:04.204Z,1.75
2022-11-22T12:52:33.715Z,1.70
2022-11-22T12:55:06.020Z,1.80
2022-11-22T12:57:39.273Z,1.80
2022-11-22T13:00:14.016Z,2.05
2022-11-22T13:03:03.536Z,2.00
2022-11-22T13:05:34.960Z,2.38
2022-11-22T13:08:21.916Z,1.75
2022-11-22T13:10:50.642Z,1.87
2022-11-22T13:13:22.076Z,2.00
2022-11-22T13:15:50.291Z,2.17
2022-11-22T13:18:17.568Z,1.95
2022-11-22T13:20:48.515Z,2.00
2022-11-22T13:23:28.003Z,1.33
2022-11-22T13:26:15.264Z,1.38
2022-11-22T13:28:42.989Z,1.80
2022-11-22T13:31:11.044Z,1.60
2022-11-22T13:33:39.744Z,1.50
2022-11-22T13:36:26.723Z,2.00
2022-11-22T13:38:55.218Z,2.00
2022-11-22T13:41:23.312Z,1.50
2022-11-22T13:43:51.995Z,1.60
2022-11-22T13:46:38.984Z,1.90
2022-11-22T13:49:08.471Z,3.67
2022-11-22T13:51:50.725Z,4.47
2022-11-22T13:54:33.778Z,3.03
2022-11-22T13:57:02.980Z,2.60
2022-11-22T13:59:30.211Z,1.90
2022-11-22T14:01:59.083Z,1.90
2022-11-22T14:04:26.794Z,2.00
2022-11-22T14:06:54.944Z,1.95
2022-11-22T14:09:41.934Z,3.55
2022-11-22T14:12:12.251Z,2.60
2022-11-22T14:14:42.575Z,2.70
2022-11-22T14:17:29.573Z,1.98
2022-11-22T14:20:02.060Z,1.80
2022-11-22T14:22:29.112Z,1.77
2022-11-22T14:24:57.174Z,1.67
2022-11-22T14:27:44.116Z,1.63
2022-11-22T14:30:14.319Z,2.00
2022-11-22T14:32:49.188Z,1.65
2022-11-22T14:35:29.005Z,1.80
2022-11-22T14:38:16.395Z,2.05
2022-11-22T14:40:43.503Z,1.63
2022-11-22T14:43:11.535Z,1.85
2022-11-22T14:45:43.257Z,1.67
2022-11-22T14:48:19.639Z,1.90
2022-11-22T14:50:50.786Z,1.85
2022-11-22T14:53:21.107Z,1.90
2022-11-22T14:55:49.150Z,1.55
2022-11-22T14:58:20.726Z,2.00
2022-11-22T15:01:11.938Z,1.70
2022-11-22T15:03:49.362Z,2.03
2022-11-22T15:09:14.913Z,1.70
2022-11-22T15:09:42.135Z,2.00
2022-11-22T15:11:58.681Z,2.03
2022-11-22T15:14:45.788Z,1.93
2022-11-22T15:59:40.189Z,3.53
2022-11-22T16:02:25.202Z,2.78
2022-11-22T16:06:05.473Z,3.05
2022-11-22T16:07:46.507Z,3.13
2022-11-22T16:10:19.341Z,2.57
2022-11-22T16:12:46.536Z,2.80
2022-11-22T16:15:20.097Z,2.53
2022-11-22T16:17:58.023Z,3.22
2022-11-22T16:20:28.215Z,2.40
2022-11-22T16:23:11.913Z,2.50
2022-11-22T16:25:40.266Z,4.18
2022-11-22T16:28:19.453Z,3.28
2022-11-22T16:30:46.608Z,5.07
2022-11-22T16:33:13.669Z,6.30
2022-11-22T16:35:40.292Z,6.88
2022-11-22T16:38:07.509Z,9.40
2022-11-22T16:40:41.813Z,10.70
2022-11-22T16:43:25.075Z,8.47
2022-11-22T16:45:52.356Z,7.10
2022-11-22T16:48:37.645Z,5.73
2022-11-22T16:51:06.039Z,5.00
2022-11-22T16:53:37.162Z,4.88
2022-11-22T16:56:04.224Z,4.00
2022-11-22T16:58:31.485Z,4.53
2022-11-22T17:00:58.816Z,4.25
2022-11-22T17:03:29.586Z,4.20
2022-11-22T17:05:56.692Z,4.00
2022-11-22T17:08:23.796Z,4.10
2022-11-22T17:10:52.352Z,4.20
2022-11-22T17:13:19.483Z,4.20
2022-11-22T17:15:46.944Z,4.47
2022-11-22T17:18:14.725Z,5.22
2022-11-22T17:20:41.836Z,5.40
2022-11-22T17:23:15.109Z,4.70
2022-11-22T17:25:42.187Z,4.68
2022-11-22T17:28:09.249Z,4.53
2022-11-22T17:30:35.995Z,4.13
2022-11-22T17:33:03.103Z,4.80
2022-11-22T17:35:34.490Z,4.47
2022-11-22T17:38:03.900Z,5.05
2022-11-22T17:40:30.942Z,6.28
2022-11-22T17:42:58.104Z,6.93
2022-11-22T17:45:25.232Z,5.43
2022-11-22T17:47:52.349Z,4.50
2022-11-22T17:50:19.456Z,11.93
2022-11-22T17:52:46.683Z,8.15
2022-11-22T17:55:14.663Z,6.50
2022-11-22T17:57:41.855Z,5.93
2022-11-22T18:00:09.479Z,5.63
2022-11-22T18:02:36.633Z,4.28
2022-11-22T18:05:08.250Z,4.28
2022-11-22T18:07:35.427Z,3.90
2022-11-22T18:10:02.867Z,3.70
2022-11-22T18:12:29.940Z,3.45
2022-11-22T18:14:57.043Z,3.58
2022-11-22T18:17:24.214Z,3.97
2022-11-22T18:19:51.438Z,4.85
2022-11-22T18:22:19.053Z,3.95
2022-11-22T18:24:46.347Z,3.67
2022-11-22T18:27:13.012Z,4.00
2022-11-22T18:29:42.771Z,4.05
2022-11-22T18:32:10.359Z,3.50
2022-11-22T18:34:37.703Z,3.50
2022-11-22T18:37:05.393Z,3.17
2022-11-22T18:39:35.014Z,3.50
2022-11-22T18:42:03.102Z,3.17
2022-11-22T18:44:30.220Z,3.13
2022-11-22T18:46:57.254Z,3.60
2022-11-22T18:49:24.411Z,3.20
2022-11-22T18:51:51.439Z,3.33
2022-11-22T18:54:19.889Z,4.05
2022-11-22T18:56:46.931Z,5.40
2022-11-22T18:59:14.063Z,6.63
2022-11-22T19:01:41.838Z,7.85
2022-11-22T19:04:10.021Z,9.48
2022-11-22T19:06:37.131Z,10.80
2022-11-22T19:09:04.277Z,10.00
2022-11-22T19:11:32.109Z,6.40
2022-11-22T19:13:59.553Z,5.80
2022-11-22T19:16:30.058Z,4.90
2022-11-22T19:18:57.815Z,4.10
2022-11-22T19:21:26.671Z,4.13
2022-11-22T19:23:54.112Z,4.38
2022-11-22T19:26:22.699Z,3.95
2022-11-22T19:28:50.436Z,4.20
2022-11-22T19:31:18.796Z,3.90
2022-11-22T19:33:45.989Z,4.00
2022-11-22T19:36:15.343Z,4.00
2022-11-22T19:38:43.067Z,4.07
2022-11-22T19:41:10.976Z,3.80
2022-11-22T19:43:38.320Z,3.55
2022-11-22T19:46:06.048Z,4.60
2022-11-22T19:48:33.655Z,6.50
2022-11-22T19:51:05.331Z,7.03
2022-11-22T19:53:32.497Z,6.72
2022-11-22T19:56:04.170Z,6.45
2022-11-22T19:58:31.536Z,6.55
2022-11-22T20:01:07.358Z,6.72
2022-11-22T20:03:35.139Z,4.78
2022-11-22T20:06:03.255Z,5.93
2022-11-22T20:08:30.830Z,9.00
2022-11-22T20:11:06.452Z,7.80
2022-11-22T20:13:35.859Z,7.60
2022-11-22T20:16:12.157Z,9.15
2022-11-22T20:18:39.219Z,8.57
2022-11-22T20:21:07.503Z,8.15
2022-11-22T20:23:34.671Z,7.40
2022-11-22T20:26:02.791Z,6.57
2022-11-22T20:28:30.456Z,5.90
2022-11-22T20:31:14.110Z,6.43
2022-11-22T20:33:42.267Z,7.70
2022-11-22T20:36:12.728Z,8.30
2022-11-22T20:38:40.758Z,10.57
2022-11-22T20:41:08.210Z,13.87
2022-11-22T20:43:36.239Z,12.30
2022-11-22T20:46:07.743Z,7.97
2022-11-22T20:48:35.540Z,5.70
2022-11-22T20:51:03.339Z,4.85
2022-11-22T20:53:30.547Z,5.28
2022-11-22T20:55:57.735Z,5.10
2022-11-22T20:58:26.330Z,4.65
2022-11-22T21:00:53.326Z,4.95
2022-11-22T21:03:20.611Z,4.93
2022-11-22T21:05:51.024Z,4.93
2022-11-22T21:08:18.262Z,4.57
2022-11-22T21:10:45.308Z,4.30
2022-11-22T21:13:12.377Z,3.67
2022-11-22T21:15:39.341Z,3.63
2022-11-22T21:18:24.721Z,4.60
2022-11-22T21:20:52.837Z,6.55
2022-11-22T21:23:20.052Z,5.13
2022-11-22T21:25:47.077Z,6.80
2022-11-22T21:28:14.090Z,6.43
2022-11-22T21:30:41.148Z,8.00
2022-11-22T21:33:08.230Z,8.10
2022-11-22T21:35:35.283Z,8.57
2022-11-22T21:38:02.317Z,9.77
2022-11-22T21:40:29.381Z,7.20
2022-11-22T21:42:56.464Z,6.45
2022-11-22T21:45:23.122Z,4.85
2022-11-22T21:47:51.228Z,4.97
2022-11-22T21:50:18.268Z,4.85
2022-11-22T21:52:45.340Z,4.68
2022-11-22T21:55:13.084Z,4.00
2022-11-22T21:57:40.136Z,4.72
2022-11-22T22:00:07.788Z,3.50
2022-11-22T22:02:35.509Z,4.03
2022-11-22T22:05:02.567Z,3.50
2022-11-22T22:07:51.321Z,3.77
2022-11-22T22:10:16.719Z,3.50
2022-11-22T22:12:43.746Z,3.30
2022-11-22T22:15:12.343Z,3.40
2022-11-22T22:17:39.432Z,3.43
2022-11-22T22:20:06.958Z,3.70
2022-11-22T22:22:37.701Z,3.45
2022-11-22T22:25:05.644Z,3.20
2022-11-22T22:27:33.382Z,3.05
2022-11-22T22:30:00.796Z,3.03
2022-11-22T22:32:28.300Z,3.72
2022-11-22T22:34:55.492Z,3.95
2022-11-22T22:37:22.556Z,3.13
2022-11-22T22:39:51.680Z,3.45
2022-11-22T22:42:19.156Z,3.25
2022-11-22T22:44:46.365Z,2.83
2022-11-22T22:47:13.426Z,2.67
2022-11-22T22:49:40.478Z,2.55
2022-11-22T22:52:07.578Z,2.70
2022-11-22T22:54:35.818Z,2.50
2022-11-22T22:57:03.394Z,2.70
2022-11-22T22:59:30.854Z,2.53
2022-11-22T23:01:57.884Z,2.90
2022-11-22T23:04:24.944Z,3.08
2022-11-22T23:06:52.082Z,2.83
2022-11-22T23:09:19.202Z,2.67
2022-11-22T23:12:06.172Z,2.47
2022-11-22T23:14:33.258Z,2.67
2022-11-22T23:17:00.389Z,2.70
2022-11-22T23:19:28.045Z,2.83
2022-11-22T23:21:55.366Z,2.53
2022-11-22T23:24:22.574Z,2.65
2022-11-22T23:26:49.727Z,2.80
2022-11-22T23:29:16.870Z,4.82
2022-11-22T23:31:43.939Z,5.30
2022-11-22T23:34:11.842Z,5.18
2022-11-22T23:36:40.933Z,4.30
2022-11-22T23:39:08.898Z,4.30
2022-11-22T23:41:35.976Z,4.00
2022-11-22T23:44:03.070Z,4.13
2022-11-22T23:46:30.178Z,4.50
2022-11-22T23:48:58.422Z,3.83
2022-11-22T23:51:26.002Z,3.73
2022-11-22T23:53:54.954Z,3.30
2022-11-22T23:56:22.321Z,3.25
2022-11-22T23:58:49.596Z,3.60
